createdAt,value
2023-01-11T00:02:02.792Z,86.27
2023-01-11T00:04:30.619Z,85.99
2023-01-11T00:06:58.280Z,87.00
2023-01-11T00:09:25.204Z,87.68
2023-01-11T00:11:52.314Z,88.33
2023-01-11T00:14:19.200Z,87.99
2023-01-11T00:16:46.088Z,88.08
2023-01-11T00:19:13.362Z,87.86
2023-01-11T00:21:40.371Z,87.75
2023-01-11T00:24:07.482Z,88.01
2023-01-11T00:26:34.384Z,88.02
2023-01-11T00:29:01.291Z,88.76
2023-01-11T00:31:28.289Z,88.23
2023-01-11T00:33:55.466Z,87.88
2023-01-11T00:36:22.388Z,88.75
2023-01-11T00:38:53.958Z,88.48
2023-01-11T00:41:41.464Z,88.29
2023-01-11T00:44:29.409Z,88.17
2023-01-11T00:47:15.612Z,87.93
2023-01-11T00:49:43.334Z,88.16
2023-01-11T00:52:10.832Z,87.78
2023-01-11T00:54:39.910Z,87.91
2023-01-11T00:57:08.232Z,87.43
2023-01-11T00:59:37.004Z,87.31
2023-01-11T01:02:04.430Z,87.80
2023-01-11T01:04:31.555Z,87.59
2023-01-11T01:06:58.548Z,87.38
2023-01-11T01:09:25.566Z,87.68
2023-01-11T01:11:52.604Z,87.14
2023-01-11T01:14:26.098Z,87.20
2023-01-11T01:16:54.180Z,87.65
2023-01-11T01:19:22.519Z,87.69
2023-01-11T01:21:50.838Z,87.49
2023-01-11T01:24:18.153Z,87.74
2023-01-11T01:26:45.099Z,87.68
2023-01-11T01:29:12.997Z,86.73
2023-01-11T01:31:40.729Z,87.75
2023-01-11T01:34:09.195Z,87.48
2023-01-11T01:36:36.276Z,87.82
2023-01-11T01:39:04.946Z,87.79
2023-01-11T01:41:32.148Z,86.64
2023-01-11T01:44:01.541Z,86.65
2023-01-11T01:46:30.868Z,86.80
2023-01-11T01:49:16.543Z,86.73
2023-01-11T01:51:50.668Z,86.22
2023-01-11T01:54:23.926Z,86.08
2023-01-11T01:56:56.281Z,86.57
2023-01-11T01:59:26.250Z,86.46
2023-01-11T02:01:53.586Z,86.04
2023-01-11T02:04:25.072Z,85.97
2023-01-11T02:07:04.423Z,85.53
2023-01-11T02:09:57.479Z,85.15
2023-01-11T02:12:26.237Z,84.77
2023-01-11T02:14:55.130Z,85.24
2023-01-11T02:17:22.038Z,85.10
2023-01-11T02:20:21.661Z,85.44
2023-01-11T02:23:10.179Z,84.99
2023-01-11T02:26:19.174Z,86.00
2023-01-11T02:29:11.655Z,85.67
2023-01-11T02:31:49.002Z,85.62
2023-01-11T02:34:43.644Z,85.29
2023-01-11T02:37:13.680Z,84.62
2023-01-11T02:39:43.416Z,84.17
2023-01-11T02:42:57.252Z,83.60
2023-01-11T02:45:42.544Z,84.60
2023-01-11T02:48:52.605Z,83.55
2023-01-11T02:51:30.658Z,83.24
2023-01-11T02:54:04.345Z,82.95
2023-01-11T02:56:37.255Z,83.09
2023-01-11T02:59:07.970Z,83.12
2023-01-11T03:01:47.351Z,83.13
2023-01-11T03:04:30.706Z,82.85
2023-01-11T03:07:09.220Z,83.62
2023-01-11T03:09:49.062Z,83.21
2023-01-11T03:12:46.317Z,83.57
2023-01-11T03:15:21.894Z,83.46
2023-01-11T03:18:09.641Z,82.86
2023-01-11T03:20:41.961Z,83.52
2023-01-11T03:23:29.404Z,83.51
2023-01-11T03:25:59.304Z,83.37
2023-01-11T03:28:58.413Z,83.07
2023-01-11T03:31:38.317Z,83.06
2023-01-11T03:34:14.463Z,84.16
2023-01-11T03:36:52.516Z,83.95
2023-01-11T03:39:31.984Z,85.04
2023-01-11T03:42:02.900Z,84.38
2023-01-11T03:44:35.122Z,84.14
2023-01-11T03:47:07.179Z,83.96
2023-01-11T03:49:39.703Z,83.81
2023-01-11T03:52:09.973Z,84.67
2023-01-11T03:54:37.597Z,83.83
2023-01-11T03:57:20.139Z,84.46
2023-01-11T03:59:47.194Z,84.36
2023-01-11T04:02:22.559Z,83.88
2023-01-11T04:04:49.735Z,83.85
2023-01-11T04:07:16.964Z,84.77
2023-01-11T04:09:43.868Z,84.84
2023-01-11T04:12:11.196Z,85.20
2023-01-11T04:14:38.327Z,84.60
2023-01-11T04:17:05.236Z,83.99
2023-01-11T04:19:32.176Z,84.30
2023-01-11T04:21:59.186Z,84.91
2023-01-11T04:24:26.183Z,84.54
2023-01-11T04:26:53.063Z,84.04
2023-01-11T04:29:19.960Z,83.89
2023-01-11T04:31:46.935Z,84.42
2023-01-11T04:34:14.029Z,84.93
2023-01-11T04:36:41.365Z,84.03
2023-01-11T04:39:11.026Z,84.83
2023-01-11T04:41:57.416Z,84.19
2023-01-11T04:44:25.286Z,84.02
2023-01-11T04:46:52.304Z,84.36
2023-01-11T04:49:19.264Z,84.90
2023-01-11T04:51:46.157Z,84.03
2023-01-11T04:54:13.113Z,84.80
2023-01-11T04:56:40.042Z,85.14
2023-01-11T04:59:07.128Z,85.27
2023-01-11T05:01:34.060Z,85.28
2023-01-11T05:04:01.142Z,84.45
2023-01-11T05:06:28.097Z,85.87
2023-01-11T05:08:55.060Z,83.95
2023-01-11T05:11:22.174Z,85.26
2023-01-11T05:13:49.098Z,85.90
2023-01-11T05:16:21.486Z,86.35
2023-01-11T05:18:56.639Z,85.64
2023-01-11T05:21:26.393Z,85.86
2023-01-11T05:23:54.133Z,85.24
2023-01-11T05:26:23.811Z,84.47
2023-01-11T05:28:51.830Z,84.56
2023-01-11T05:31:19.262Z,85.22
2023-01-11T05:33:46.396Z,85.28
2023-01-11T05:36:16.501Z,85.20
2023-01-11T05:38:45.678Z,85.33
2023-01-11T05:41:13.190Z,87.60
2023-01-11T05:43:58.865Z,87.57
2023-01-11T05:46:27.270Z,87.74
2023-01-11T05:48:57.361Z,88.71
2023-01-11T05:51:24.288Z,87.65
2023-01-11T05:53:53.061Z,87.08
2023-01-11T05:56:20.380Z,87.59
2023-01-11T05:58:51.899Z,87.77
2023-01-11T06:01:21.071Z,86.85
2023-01-11T06:03:48.314Z,87.27
2023-01-11T06:06:16.788Z,87.17
2023-01-11T06:08:43.695Z,87.22
2023-01-11T06:11:10.575Z,88.71
2023-01-11T06:13:37.618Z,88.30
2023-01-11T06:16:14.513Z,87.88
2023-01-11T06:18:49.445Z,88.22
2023-01-11T06:21:17.889Z,86.98
2023-01-11T06:23:47.324Z,87.11
2023-01-11T06:26:16.797Z,87.08
2023-01-11T06:28:44.556Z,86.50
2023-01-11T06:31:11.838Z,86.24
2023-01-11T06:33:39.134Z,85.45
2023-01-11T06:36:08.527Z,85.98
2023-01-11T06:38:36.198Z,85.98
2023-01-11T06:41:05.605Z,85.92
2023-01-11T06:43:32.856Z,87.66
2023-01-11T06:46:00.279Z,87.15
2023-01-11T06:48:27.924Z,87.50
2023-01-11T06:50:56.904Z,85.96
2023-01-11T06:53:28.121Z,87.34
2023-01-11T06:55:57.825Z,86.45
2023-01-11T06:58:26.358Z,87.09
2023-01-11T07:00:55.656Z,86.79
2023-01-11T07:03:24.514Z,86.46
2023-01-11T07:05:53.121Z,85.57
2023-01-11T07:08:20.797Z,86.17
2023-01-11T07:10:47.915Z,84.59
2023-01-11T07:13:18.743Z,85.29
2023-01-11T07:15:48.580Z,84.22
2023-01-11T07:18:15.813Z,86.20
2023-01-11T07:20:42.745Z,85.76
2023-01-11T07:23:10.935Z,86.20
2023-01-11T07:25:38.220Z,87.48
2023-01-11T07:28:07.218Z,86.57
2023-01-11T07:30:51.859Z,86.47
2023-01-11T07:33:23.568Z,86.38
2023-01-11T07:35:50.615Z,84.89
2023-01-11T07:38:17.481Z,85.27
2023-01-11T07:40:44.445Z,85.22
2023-01-11T07:43:15.319Z,85.34
2023-01-11T07:45:46.434Z,84.94
2023-01-11T07:48:14.937Z,85.95
2023-01-11T07:50:44.855Z,85.24
2023-01-11T07:53:13.305Z,84.93
2023-01-11T07:55:41.370Z,83.92
2023-01-11T07:58:15.251Z,83.25
2023-01-11T08:00:42.307Z,83.60
2023-01-11T08:03:10.182Z,82.88
2023-01-11T08:05:37.699Z,83.45
2023-01-11T08:08:05.941Z,84.28
2023-01-11T08:10:33.877Z,83.79
2023-01-11T08:13:20.574Z,83.82
2023-01-11T08:15:47.575Z,83.20
2023-01-11T08:18:14.552Z,83.49
2023-01-11T08:20:41.689Z,82.54
2023-01-11T08:23:10.429Z,84.43
2023-01-11T08:25:37.586Z,84.79
2023-01-11T08:28:07.173Z,84.70
2023-01-11T08:30:35.177Z,86.19
2023-01-11T08:33:02.790Z,86.34
2023-01-11T08:35:30.922Z,87.08
2023-01-11T08:37:58.066Z,87.03
2023-01-11T08:40:25.732Z,86.55
2023-01-11T08:42:57.186Z,86.68
2023-01-11T08:45:24.555Z,84.54
2023-01-11T08:47:52.389Z,85.15
2023-01-11T08:50:20.842Z,85.17
2023-01-11T08:52:51.102Z,84.88
2023-01-11T08:55:21.679Z,82.93
2023-01-11T08:57:48.685Z,84.21
2023-01-11T09:00:16.209Z,84.27
2023-01-11T09:02:45.417Z,83.80
2023-01-11T09:05:12.543Z,84.15
2023-01-11T09:07:39.483Z,86.81
2023-01-11T09:10:06.910Z,87.83
2023-01-11T09:12:33.884Z,88.94
2023-01-11T09:15:00.938Z,88.26
2023-01-11T09:17:28.241Z,87.41
2023-01-11T09:19:55.233Z,87.66
2023-01-11T09:22:22.279Z,90.06
2023-01-11T09:24:49.355Z,89.19
2023-01-11T09:27:16.752Z,88.58
2023-01-11T09:29:43.924Z,88.19
2023-01-11T09:32:10.862Z,89.75
2023-01-11T09:34:38.029Z,89.59
2023-01-11T09:37:07.040Z,89.75
2023-01-11T09:39:35.333Z,88.45
2023-01-11T09:42:29.538Z,88.82
2023-01-11T10:18:27.585Z,93.22
2023-01-11T10:20:35.572Z,92.44
2023-01-11T10:23:08.517Z,90.99
2023-01-11T10:25:46.611Z,90.09
2023-01-11T10:28:36.033Z,88.99
2023-01-11T10:31:29.771Z,88.40
2023-01-11T10:34:21.088Z,88.50
2023-01-11T10:37:00.934Z,88.00
2023-01-11T10:39:40.039Z,87.82
2023-01-11T10:42:21.944Z,87.16
2023-01-11T10:44:55.100Z,87.92
2023-01-11T10:47:27.946Z,88.17
2023-01-11T10:50:00.482Z,88.34
2023-01-11T10:52:32.789Z,88.46
2023-01-11T10:55:03.145Z,89.10
2023-01-11T10:57:59.309Z,88.80
2023-01-11T11:00:37.503Z,89.26
2023-01-11T11:03:32.057Z,88.86
2023-01-11T11:06:20.811Z,88.88
2023-01-11T11:09:16.689Z,88.43
2023-01-11T11:12:08.193Z,90.00
2023-01-11T11:14:51.742Z,90.28
2023-01-11T11:17:38.250Z,89.76
2023-01-11T11:20:17.989Z,89.34
2023-01-11T11:22:47.645Z,88.89
2023-01-11T11:25:16.915Z,89.64
2023-01-11T11:27:51.192Z,90.49
2023-01-11T11:30:38.586Z,90.39
2023-01-11T11:33:23.650Z,89.88
2023-01-11T11:36:04.859Z,89.16
2023-01-11T11:38:34.653Z,89.00
2023-01-11T11:41:08.693Z,89.04
2023-01-11T11:43:43.525Z,89.59
2023-01-11T11:46:25.259Z,90.28
2023-01-11T11:49:12.685Z,89.86
2023-01-11T11:51:41.316Z,90.30
2023-01-11T11:54:17.989Z,89.86
2023-01-11T11:56:45.087Z,90.49
2023-01-11T11:59:18.163Z,89.93
2023-01-11T12:01:48.535Z,89.77
2023-01-11T12:04:24.561Z,90.07
2023-01-11T12:07:12.068Z,89.72
2023-01-11T12:09:48.701Z,90.41
2023-01-11T12:12:19.448Z,90.15
2023-01-11T12:15:09.198Z,90.05
2023-01-11T12:17:37.112Z,90.37
2023-01-11T12:20:23.989Z,91.14
2023-01-11T12:23:08.539Z,91.15
2023-01-11T12:26:01.435Z,91.63
2023-01-11T12:28:55.355Z,91.71
2023-01-11T12:31:43.489Z,91.66
2023-01-11T12:34:19.532Z,91.75
2023-01-11T12:37:01.544Z,91.64
2023-01-11T12:39:51.724Z,91.81
2023-01-11T12:42:42.986Z,91.80
2023-01-11T12:45:38.961Z,92.49
2023-01-11T12:48:11.534Z,92.03
2023-01-11T12:50:41.365Z,92.78
2023-01-11T12:53:34.069Z,92.87
2023-01-11T12:56:03.561Z,92.33
2023-01-11T12:58:44.962Z,92.64
2023-01-11T13:01:34.784Z,92.47
2023-01-11T13:04:20.431Z,92.77
2023-01-11T13:07:05.501Z,92.91
2023-01-11T13:09:38.049Z,93.78
2023-01-11T13:12:29.917Z,93.87
2023-01-11T13:15:22.633Z,93.52
2023-01-11T13:18:19.371Z,93.33
2023-01-11T13:21:10.692Z,93.85
2023-01-11T13:23:53.492Z,93.49
2023-01-11T13:26:34.251Z,93.31
2023-01-11T13:29:23.897Z,93.64
2023-01-11T13:31:52.845Z,93.69
2023-01-11T13:34:44.711Z,93.65
2023-01-11T13:37:20.203Z,93.75
2023-01-11T13:39:57.463Z,93.68
2023-01-11T13:42:30.929Z,93.42
2023-01-11T13:45:35.808Z,93.19
2023-01-11T13:48:59.456Z,93.25
2023-01-11T13:51:29.167Z,92.39
2023-01-11T13:54:05.398Z,92.03
2023-01-11T13:56:36.720Z,93.15
2023-01-11T13:59:07.946Z,93.03
2023-01-11T14:01:37.922Z,92.73
2023-01-11T14:04:10.189Z,93.56
2023-01-11T14:06:55.534Z,94.03
2023-01-11T14:09:51.709Z,94.06
2023-01-11T14:12:27.491Z,92.93
2023-01-11T14:15:20.339Z,93.05
2023-01-11T14:18:09.430Z,92.83
2023-01-11T14:21:13.390Z,92.78
2023-01-11T14:23:51.077Z,92.85
2023-01-11T14:27:04.353Z,92.35
2023-01-11T14:30:00.062Z,92.32
2023-01-11T14:32:45.767Z,91.81
2023-01-11T14:35:41.095Z,92.46
2023-01-11T14:38:32.381Z,93.09
2023-01-11T14:41:23.226Z,93.30
2023-01-11T14:44:20.349Z,93.83
2023-01-11T14:47:14.438Z,93.55
2023-01-11T14:49:57.984Z,93.85
2023-01-11T14:52:39.577Z,95.12
2023-01-11T14:55:20.307Z,94.96
2023-01-11T14:58:17.642Z,94.22
2023-01-11T15:00:44.542Z,93.53
2023-01-11T15:03:11.335Z,94.05
2023-01-11T15:05:46.692Z,94.24
2023-01-11T15:08:13.517Z,94.77
2023-01-11T15:10:59.894Z,94.58
2023-01-11T15:13:35.240Z,94.39
2023-01-11T15:16:40.395Z,94.28
2023-01-11T15:19:11.081Z,93.31
2023-01-11T15:21:47.890Z,94.03
2023-01-11T15:24:25.749Z,94.18
2023-01-11T15:26:54.065Z,95.02
2023-01-11T15:29:32.753Z,94.52
2023-01-11T15:32:02.341Z,93.65
2023-01-11T15:34:43.064Z,94.50
2023-01-11T15:37:31.131Z,93.79
2023-01-11T15:40:04.097Z,94.66
2023-01-11T15:42:49.690Z,94.55
2023-01-11T15:45:25.222Z,94.15
2023-01-11T15:48:31.727Z,94.01
2023-01-11T15:51:25.470Z,94.42
2023-01-11T15:54:29.521Z,94.59
2023-01-11T15:57:16.831Z,94.69
2023-01-11T16:00:08.276Z,94.66
2023-01-11T16:02:54.139Z,94.44
2023-01-11T16:05:26.255Z,94.29
2023-01-11T16:08:15.108Z,94.31
2023-01-11T16:11:03.835Z,94.10
2023-01-11T16:13:33.745Z,93.88
2023-01-11T16:16:19.528Z,94.27
2023-01-11T16:19:11.179Z,93.53
2023-01-11T16:21:41.082Z,93.73
2023-01-11T16:24:10.220Z,93.63
2023-01-11T16:26:40.342Z,93.88
2023-01-11T16:29:12.795Z,93.72
2023-01-11T16:32:00.120Z,93.66
2023-01-11T16:34:39.397Z,93.18
2023-01-11T16:37:27.762Z,91.98
2023-01-11T16:40:03.019Z,92.26
2023-01-11T16:42:34.635Z,91.87
2023-01-11T16:45:06.659Z,91.82
2023-01-11T16:47:33.869Z,91.74
2023-01-11T16:50:28.534Z,91.05
2023-01-11T16:52:59.519Z,91.67
2023-01-11T16:55:30.174Z,90.84
2023-01-11T16:58:00.693Z,91.44
2023-01-11T17:00:36.229Z,92.54
2023-01-11T17:03:21.862Z,92.77
2023-01-11T17:06:08.175Z,93.05
2023-01-11T17:08:36.332Z,92.86
2023-01-11T17:11:34.262Z,91.78
2023-01-11T17:14:19.240Z,92.83
2023-01-11T17:17:02.950Z,92.41
2023-01-11T17:19:43.249Z,93.09
2023-01-11T17:22:22.307Z,93.13
2023-01-11T17:24:59.863Z,93.06
2023-01-11T17:27:35.701Z,93.66
2023-01-11T17:30:05.384Z,93.74
2023-01-11T17:32:38.803Z,94.37
2023-01-11T17:35:14.892Z,93.64
2023-01-11T17:37:45.384Z,94.57
2023-01-11T17:40:35.511Z,94.67
2023-01-11T17:43:30.436Z,94.47
2023-01-11T17:45:58.973Z,94.40
2023-01-11T17:48:27.454Z,95.35
2023-01-11T17:51:00.208Z,95.38
2023-01-11T17:53:29.855Z,94.77
2023-01-11T17:55:59.008Z,95.48
2023-01-11T17:58:39.163Z,94.84
2023-01-11T18:01:07.810Z,94.75
2023-01-11T18:03:52.959Z,95.27
2023-01-11T18:06:35.148Z,95.50
2023-01-11T18:09:06.578Z,95.49
2023-01-11T18:11:36.146Z,95.48
2023-01-11T18:14:06.210Z,95.77
2023-01-11T18:16:33.586Z,95.84
2023-01-11T18:19:01.039Z,95.43
2023-01-11T18:22:03.075Z,95.20
2023-01-11T18:24:34.118Z,95.04
2023-01-11T18:27:31.631Z,95.77
2023-01-11T18:30:01.416Z,94.95
2023-01-11T18:32:38.572Z,95.10
2023-01-11T18:35:16.915Z,94.79
2023-01-11T18:37:45.305Z,95.21
2023-01-11T18:40:14.220Z,95.62
2023-01-11T18:42:41.407Z,95.56
2023-01-11T18:45:11.430Z,95.37
2023-01-11T18:47:38.457Z,95.18
2023-01-11T18:50:08.386Z,95.01
2023-01-11T18:52:37.425Z,94.91
2023-01-11T18:55:07.126Z,94.73
2023-01-11T18:57:34.101Z,94.63
2023-01-11T19:00:00.970Z,95.26
2023-01-11T19:02:33.366Z,95.01
2023-01-11T19:05:00.401Z,94.78
2023-01-11T19:07:27.492Z,95.18
2023-01-11T19:09:55.072Z,95.52
2023-01-11T19:12:23.523Z,95.18
2023-01-11T19:14:50.476Z,95.45
2023-01-11T19:17:17.484Z,95.67
2023-01-11T19:19:44.547Z,95.87
2023-01-11T19:22:12.217Z,95.46
2023-01-11T19:24:39.914Z,96.08
2023-01-11T19:27:07.008Z,95.33
2023-01-11T19:29:34.119Z,95.57
2023-01-11T19:32:01.101Z,95.17
2023-01-11T19:34:28.036Z,94.88
2023-01-11T19:36:54.935Z,95.05
2023-01-11T19:39:21.883Z,95.19
2023-01-11T19:41:54.573Z,95.41
2023-01-11T19:44:22.335Z,94.97
2023-01-11T19:46:56.763Z,94.82
2023-01-11T19:49:27.707Z,95.03
2023-01-11T19:51:54.744Z,95.12
2023-01-11T19:54:22.243Z,95.58
2023-01-11T19:56:52.102Z,95.53
2023-01-11T19:59:20.067Z,95.42
2023-01-11T20:01:48.294Z,95.25
2023-01-11T20:04:16.472Z,95.32
2023-01-11T20:06:50.685Z,95.44
2023-01-11T20:09:22.137Z,95.69
2023-01-11T20:11:49.563Z,95.78
2023-01-11T20:14:17.106Z,95.82
2023-01-11T20:16:44.033Z,95.97
2023-01-11T20:19:11.717Z,95.78
2023-01-11T20:21:38.668Z,95.98
2023-01-11T20:24:06.743Z,95.04
2023-01-11T20:26:36.610Z,94.90
2023-01-11T20:29:05.724Z,94.84
2023-01-11T20:31:35.388Z,94.92
2023-01-11T20:34:10.911Z,94.99
2023-01-11T20:36:38.217Z,95.00
2023-01-11T20:39:05.663Z,95.03
2023-01-11T20:41:47.992Z,95.42
2023-01-11T20:44:21.742Z,95.66
2023-01-11T20:46:48.815Z,95.65
2023-01-11T20:49:16.963Z,95.44
2023-01-11T20:51:45.305Z,95.13
2023-01-11T20:54:12.935Z,95.15
2023-01-11T20:56:40.940Z,95.88
2023-01-11T20:59:09.431Z,95.50
2023-01-11T21:01:37.419Z,95.50
2023-01-11T21:04:09.743Z,95.68
2023-01-11T21:06:39.990Z,95.43
2023-01-11T21:09:08.183Z,95.36
2023-01-11T21:11:35.866Z,95.20
2023-01-11T21:14:04.644Z,95.25
2023-01-11T21:16:32.029Z,95.26
2023-01-11T21:19:01.413Z,94.78
2023-01-11T21:21:31.976Z,95.03
2023-01-11T21:24:01.908Z,94.76
2023-01-11T21:26:29.606Z,94.92
2023-01-11T21:29:01.701Z,94.64
2023-01-11T21:31:31.191Z,94.55
2023-01-11T21:33:59.470Z,94.00
2023-01-11T21:36:28.594Z,95.03
2023-01-11T21:38:56.889Z,94.85
2023-01-11T21:41:52.779Z,94.82
2023-01-11T21:44:21.544Z,94.69
2023-01-11T21:46:49.930Z,95.27
2023-01-11T21:49:17.573Z,95.43
2023-01-11T21:51:44.556Z,95.66
2023-01-11T21:54:13.518Z,95.30
2023-01-11T21:56:42.089Z,95.35
2023-01-11T21:59:09.679Z,95.40
2023-01-11T22:01:38.609Z,95.67
2023-01-11T22:04:10.768Z,95.40
2023-01-11T22:06:42.355Z,95.42
2023-01-11T22:09:11.696Z,95.87
2023-01-11T22:11:39.662Z,96.40
2023-01-11T22:14:08.694Z,96.56
2023-01-11T22:16:37.435Z,96.43
2023-01-11T22:19:07.476Z,96.60
2023-01-11T22:21:35.858Z,96.35
2023-01-11T22:24:03.136Z,96.07
2023-01-11T22:26:38.709Z,96.73
2023-01-11T22:29:12.901Z,96.78
2023-01-11T22:31:44.709Z,96.95
2023-01-11T22:34:13.858Z,97.35
2023-01-11T22:36:41.690Z,97.30
2023-01-11T22:39:08.702Z,97.12
2023-01-11T22:41:35.653Z,97.47
2023-01-11T22:44:02.885Z,97.61
2023-01-11T22:46:30.033Z,98.02
2023-01-11T22:48:56.969Z,97.47
2023-01-11T22:51:25.356Z,97.10
2023-01-11T22:53:53.900Z,97.43
2023-01-11T22:56:25.680Z,97.40
2023-01-11T22:58:53.938Z,97.88
2023-01-11T23:01:29.981Z,98.05
2023-01-11T23:03:58.075Z,97.47
2023-01-11T23:06:30.556Z,97.89
2023-01-11T23:08:58.043Z,97.97
2023-01-11T23:11:48.853Z,97.74
2023-01-11T23:14:19.863Z,98.09
2023-01-11T23:16:48.655Z,97.94
2023-01-11T23:19:17.856Z,98.04
2023-01-11T23:21:45.454Z,98.25
2023-01-11T23:24:14.246Z,98.10
2023-01-11T23:26:41.487Z,98.09
2023-01-11T23:29:08.586Z,98.63
2023-01-11T23:31:35.589Z,98.40
2023-01-11T23:34:04.017Z,98.17
2023-01-11T23:36:33.916Z,98.40
2023-01-11T23:39:01.382Z,98.08
2023-01-11T23:41:47.383Z,98.20
2023-01-11T23:44:15.861Z,98.54
2023-01-11T23:47:02.199Z,98.17
2023-01-11T23:49:30.994Z,98.79
2023-01-11T23:51:58.550Z,98.34
2023-01-11T23:54:30.621Z,98.21
2023-01-11T23:56:58.745Z,98.38
2023-01-11T23:59:26.086Z,98.48
